Time;durP1;ratioP1;P1;durP2;ratioP2;P2;SDS_P1;SDS_P2;PMS_P1;PMS_P2;Temp;Humidity;BMP_temperature;BMP_pressure;BME280_temperature;BME280_humidity;BME280_pressure;Samples;Min_cycle;Max_cycle;Signal;HPM_P1;HPM_P2
2021/07/14 00:00:37;;;;;;;10.52;9.15;;;716.90;1612.80;;;;;;5104046;28;20020;-78
2021/07/14 00:03:03;;;;;;;12.43;10.55;;;716.90;1612.80;;;;;;5094368;28;20125;-77
2021/07/14 00:05:32;;;;;;;12.73;10.95;;;716.90;1638.40;;;;;;5103760;28;20102;-78
2021/07/14 00:07:58;;;;;;;13.77;9.57;;;716.90;1638.40;;;;;;5094033;28;20494;-78
2021/07/14 00:10:29;;;;;;;11.85;10.63;;;716.90;1612.80;;;;;;5090780;28;20028;-78
2021/07/14 00:23:30;;;;;;;12.07;9.02;;;716.80;1587.20;;;;;;5110234;28;20039;-78
2021/07/14 00:25:56;;;;;;;10.27;9.27;;;716.80;1587.20;;;;;;5094008;28;20031;-78
2021/07/14 00:28:22;;;;;;;15.00;8.45;;;716.80;1561.60;;;;;;5112654;28;20028;-79
2021/07/14 00:30:51;;;;;;;9.55;8.45;;;692.10;1536.00;;;;;;5094425;28;20028;-79
2021/07/14 00:33:17;;;;;;;11.70;10.02;;;692.00;1561.60;;;;;;5094306;28;20020;-79
2021/07/14 00:35:43;;;;;;;9.75;8.75;;;692.00;1561.60;;;;;;5098868;28;20020;-79
2021/07/14 00:38:10;;;;;;;10.80;8.25;;;692.10;1561.60;;;;;;5106015;28;20374;-79
2021/07/14 00:40:36;;;;;;;12.63;8.57;;;692.10;1561.60;;;;;;5107438;28;20547;-78
2021/07/14 00:43:02;;;;;;;19.25;9.63;;;692.10;1561.60;;;;;;5097107;28;20047;-78
2021/07/14 00:45:28;;;;;;;10.50;8.85;;;716.80;1587.20;;;;;;5113426;28;20055;-78
2021/07/14 00:47:57;;;;;;;10.02;8.73;;;716.80;1561.60;;;;;;5110902;28;20024;-78
2021/07/14 00:50:23;;;;;;;10.63;8.52;;;716.80;1587.20;;;;;;5089542;28;20057;-78
2021/07/14 00:52:49;;;;;;;12.02;9.55;;;716.80;1561.60;;;;;;5116344;28;20035;-78
2021/07/14 00:55:15;;;;;;;14.13;9.93;;;692.10;1561.60;;;;;;5090940;28;20028;-79
2021/07/14 00:57:41;;;;;;;15.50;9.07;;;692.00;1561.60;;;;;;5098098;28;20126;-78
2021/07/14 01:00:10;;;;;;;13.80;9.32;;;692.00;1561.60;;;;;;5091062;28;20032;-79
2021/07/14 01:02:36;;;;;;;11.73;8.63;;;692.00;1561.60;;;;;;5097994;28;20024;-79
2021/07/14 01:05:30;;;;;;;9.80;8.57;;;692.00;1561.60;;;;;;5116265;28;20031;-80
2021/07/14 01:08:19;;;;;;;12.93;8.40;;;692.00;1561.60;;;;;;5013679;28;20041;-79
2021/07/14 01:10:56;;;;;;;12.10;8.35;;;692.00;1561.60;;;;;;5018683;28;20026;-80
2021/07/14 01:13:42;;;;;;;10.65;8.95;;;692.00;1561.60;;;;;;5032162;28;20085;-79
2021/07/14 01:16:14;;;;;;;14.02;9.02;;;691.90;1561.60;;;;;;5016596;28;20027;-79
2021/07/14 01:18:40;;;;;;;10.80;9.07;;;691.80;1561.60;;;;;;5015874;28;20040;-79
2021/07/14 01:21:26;;;;;;;10.82;8.40;;;691.80;1587.20;;;;;;5015621;28;20124;-80
2021/07/14 01:24:07;;;;;;;13.68;7.88;;;691.80;1587.20;;;;;;5016117;28;20036;-80
2021/07/14 01:27:10;;;;;;;11.25;8.02;;;691.80;1561.60;;;;;;5032427;28;20041;-79
2021/07/14 01:29:43;;;;;;;15.68;9.60;;;691.70;1561.60;;;;;;5024129;28;20025;-79
2021/07/14 01:32:10;;;;;;;11.95;8.80;;;691.70;1587.20;;;;;;5015333;28;20033;-79
2021/07/14 01:34:41;;;;;;;15.43;9.32;;;691.70;1587.20;;;;;;5032252;28;20058;-79
2021/07/14 01:37:08;;;;;;;9.98;8.77;;;691.70;1561.60;;;;;;5031952;28;20021;-79
2021/07/14 01:39:35;;;;;;;11.75;8.02;;;691.60;1587.20;;;;;;5024475;28;20037;-80
2021/07/14 01:42:05;;;;;;;11.65;8.13;;;691.70;1587.20;;;;;;5014944;28;20044;-78
2021/07/14 01:44:31;;;;;;;10.70;7.78;;;691.60;1587.20;;;;;;5047981;28;20041;-78
2021/07/14 01:47:01;;;;;;;11.15;8.25;;;691.50;1587.20;;;;;;5074486;28;20513;-78
2021/07/14 01:49:29;;;;;;;11.82;9.05;;;691.50;1587.20;;;;;;5074607;28;20086;-77
2021/07/14 01:52:02;;;;;;;9.63;8.15;;;691.50;1612.80;;;;;;5069020;28;20120;-75
2021/07/14 01:54:30;;;;;;;10.68;7.70;;;691.50;1587.20;;;;;;5068300;28;20038;-75
2021/07/14 01:56:58;;;;;;;8.73;7.75;;;691.60;1587.20;;;;;;5062448;28;20104;-75
2021/07/14 01:59:25;;;;;;;11.93;8.52;;;691.70;1587.20;;;;;;5068321;28;20016;-76
2021/07/14 02:01:52;;;;;;;11.55;8.05;;;691.70;1587.20;;;;;;5072731;28;20066;-76
2021/07/14 02:04:30;;;;;;;15.40;7.80;;;691.70;1587.20;;;;;;5066766;28;20029;-76
2021/07/14 02:07:05;;;;;;;14.18;8.02;;;691.70;1587.20;;;;;;5087293;28;20028;-76
2021/07/14 02:09:49;;;;;;;10.30;7.90;;;691.70;1587.20;;;;;;5071790;28;20035;-76
2021/07/14 02:12:16;;;;;;;10.02;6.85;;;691.70;1587.20;;;;;;5069868;28;20052;-76
2021/07/14 02:14:48;;;;;;;12.85;7.28;;;691.70;1587.20;;;;;;5064808;28;20028;-76
2021/07/14 02:17:18;;;;;;;9.93;7.60;;;691.70;1587.20;;;;;;5069406;28;20502;-75
2021/07/14 02:20:01;;;;;;;15.20;7.88;;;691.70;1612.80;;;;;;5069922;28;20070;-75
2021/07/14 02:22:27;;;;;;;10.77;8.57;;;691.70;1612.80;;;;;;5087060;28;20044;-75
2021/07/14 02:24:54;;;;;;;9.90;7.22;;;691.70;1612.80;;;;;;5090977;28;20070;-76
2021/07/14 02:27:20;;;;;;;10.18;7.53;;;691.60;1612.80;;;;;;5093348;28;20505;-75
2021/07/14 02:29:47;;;;;;;15.40;8.60;;;691.70;1612.80;;;;;;5093661;28;20032;-75
2021/07/14 02:32:17;;;;;;;12.52;7.82;;;691.70;1612.80;;;;;;5081049;28;20024;-76
2021/07/14 02:34:45;;;;;;;11.05;7.50;;;691.70;1612.80;;;;;;5082627;28;20414;-76
2021/07/14 02:37:15;;;;;;;9.98;7.40;;;691.60;1612.80;;;;;;5091567;28;20032;-76
2021/07/14 02:39:44;;;;;;;11.07;7.93;;;691.70;1612.80;;;;;;5093514;28;20028;-75
2021/07/14 02:42:17;;;;;;;12.07;7.32;;;691.60;1612.80;;;;;;5093113;28;20022;-76
2021/07/14 02:44:45;;;;;;;10.57;7.28;;;691.60;1612.80;;;;;;5093035;28;20024;-76
2021/07/14 02:47:12;;;;;;;11.95;6.60;;;691.60;1612.80;;;;;;5086396;28;20024;-76
2021/07/14 02:49:39;;;;;;;10.55;7.38;;;691.50;1612.80;;;;;;5087943;28;20021;-76
2021/07/14 02:52:12;;;;;;;8.30;7.30;;;691.70;1638.40;;;;;;5072892;28;20071;-76
2021/07/14 02:54:44;;;;;;;10.32;7.50;;;691.60;1612.80;;;;;;5075267;28;20120;-76
2021/07/14 02:57:14;;;;;;;10.60;7.43;;;691.70;1612.80;;;;;;5092772;28;20020;-76
2021/07/14 02:59:44;;;;;;;8.30;7.43;;;691.70;1612.80;;;;;;5091749;28;20368;-76
2021/07/14 03:02:11;;;;;;;10.55;7.97;;;691.70;1612.80;;;;;;5086116;28;20030;-76
2021/07/14 03:04:47;;;;;;;8.93;6.78;;;691.70;1612.80;;;;;;5071336;28;20459;-76
2021/07/14 03:07:14;;;;;;;;;;;691.70;1612.80;;;;;;5090171;28;20456;-76
2021/07/14 03:09:42;;;;;;;15.00;9.52;;;691.80;1612.80;;;;;;5091008;28;20306;-77
2021/07/14 03:12:11;;;;;;;12.52;7.68;;;691.70;1612.80;;;;;;5090534;28;20024;-77
2021/07/14 03:14:59;;;;;;;11.70;6.82;;;691.80;1612.80;;;;;;5081818;28;20032;-76
2021/07/14 03:17:28;;;;;;;12.55;6.57;;;691.80;1612.80;;;;;;5087341;28;20074;-75
2021/07/14 03:19:55;;;;;;;14.48;7.18;;;691.80;1612.80;;;;;;5086067;28;20027;-75
2021/07/14 03:22:22;;;;;;;12.20;7.07;;;691.90;1612.80;;;;;;5083866;28;20056;-76
2021/07/14 03:24:48;;;;;;;10.40;6.80;;;691.90;1612.80;;;;;;5091314;28;20082;-75
2021/07/14 03:27:15;;;;;;;10.52;7.57;;;691.90;1612.80;;;;;;5090831;28;20490;-76
2021/07/14 03:29:41;;;;;;;9.02;7.00;;;691.90;1612.80;;;;;;5092538;28;20020;-77
2021/07/14 03:32:07;;;;;;;9.35;7.57;;;691.90;1638.40;;;;;;5092025;28;20058;-76
2021/07/14 03:34:35;;;;;;;15.82;7.80;;;691.90;1612.80;;;;;;5091941;28;20024;-75
2021/07/14 03:37:06;;;;;;;9.57;7.15;;;692.00;1612.80;;;;;;5090786;28;20024;-75
2021/07/14 03:39:37;;;;;;;12.38;7.80;;;691.90;1638.40;;;;;;5079556;28;20431;-76
2021/07/14 03:42:09;;;;;;;8.30;6.88;;;692.00;1612.80;;;;;;5091044;28;20058;-76
2021/07/14 03:44:36;;;;;;;9.70;7.00;;;692.00;1638.40;;;;;;5091748;28;20081;-76
2021/07/14 03:47:03;;;;;;;10.68;8.35;;;692.00;1612.80;;;;;;5084770;28;20104;-75
2021/07/14 03:49:29;;;;;;;9.35;7.78;;;692.00;1638.40;;;;;;5091823;28;20020;-75
2021/07/14 03:51:56;;;;;;;9.13;8.07;;;691.80;1638.40;;;;;;5081054;28;20107;-76
2021/07/14 03:54:23;;;;;;;8.70;7.15;;;692.00;1638.40;;;;;;5086241;28;20475;-76
2021/07/14 03:56:49;;;;;;;9.85;8.18;;;692.00;1638.40;;;;;;5090842;28;20110;-76
2021/07/14 03:59:15;;;;;;;10.77;7.82;;;692.10;1638.40;;;;;;5091687;28;20091;-76
2021/07/14 04:01:43;;;;;;;16.10;8.50;;;692.10;1638.40;;;;;;5090495;28;20020;-76
2021/07/14 04:04:10;;;;;;;14.70;7.75;;;692.00;1638.40;;;;;;5091897;28;20501;-76
2021/07/14 04:06:36;;;;;;;10.48;7.10;;;692.10;1638.40;;;;;;5091621;28;20865;-76
2021/07/14 04:09:14;;;;;;;9.25;7.80;;;692.10;1638.40;;;;;;5091907;28;20031;-76
2021/07/14 04:11:40;;;;;;;12.07;7.70;;;692.10;1638.40;;;;;;5090224;28;20421;-76
2021/07/14 04:14:06;;;;;;;11.13;8.10;;;692.00;1664.00;;;;;;5089815;28;20035;-76
2021/07/14 04:16:31;;;;;;;11.07;7.10;;;716.80;1664.00;;;;;;5089219;28;20086;-77
2021/07/14 04:18:57;;;;;;;12.82;7.88;;;716.90;1664.00;;;;;;5089855;28;20035;-76
2021/07/14 04:21:23;;;;;;;11.68;8.10;;;717.00;1664.00;;;;;;5090105;28;20048;-77
2021/07/14 04:23:49;;;;;;;16.02;8.13;;;717.00;1664.00;;;;;;5091491;28;20099;-77
2021/07/14 04:26:14;;;;;;;12.32;7.32;;;717.00;1664.00;;;;;;5091972;28;20086;-76
2021/07/14 04:28:40;;;;;;;11.38;6.75;;;717.00;1664.00;;;;;;5091033;28;20047;-76
2021/07/14 04:31:06;;;;;;;9.23;7.60;;;717.20;1664.00;;;;;;5090238;28;20506;-76
2021/07/14 04:33:31;;;;;;;9.10;7.22;;;717.20;1664.00;;;;;;5090499;28;20028;-76
2021/07/14 04:35:58;;;;;;;11.65;8.20;;;717.30;1664.00;;;;;;5089684;28;20082;-77
2021/07/14 04:38:24;;;;;;;10.02;7.60;;;717.30;1664.00;;;;;;5091087;28;20044;-76
2021/07/14 04:40:50;;;;;;;12.65;7.95;;;717.40;1664.00;;;;;;5091751;28;20055;-76
2021/07/14 04:43:15;;;;;;;11.65;8.48;;;717.50;1664.00;;;;;;5085518;28;20383;-76
2021/07/14 04:45:41;;;;;;;10.43;8.27;;;717.70;1664.00;;;;;;5082978;28;20107;-76
2021/07/14 04:48:07;;;;;;;15.93;8.23;;;717.70;1664.00;;;;;;5084342;28;20029;-76
2021/07/14 04:50:33;;;;;;;11.77;8.77;;;742.40;1689.60;;;;;;5075193;28;20059;-76
2021/07/14 04:52:59;;;;;;;12.35;8.77;;;742.40;1664.00;;;;;;5092248;28;20107;-76
2021/07/14 04:55:24;;;;;;;10.13;8.02;;;742.60;1664.00;;;;;;5094593;28;20040;-76
2021/07/14 04:57:50;;;;;;;17.20;8.70;;;742.70;1664.00;;;;;;5092019;28;20027;-76
2021/07/14 05:00:17;;;;;;;11.25;8.45;;;742.70;1664.00;;;;;;5089528;28;20020;-76
2021/07/14 05:02:46;;;;;;;12.25;9.10;;;742.80;1664.00;;;;;;5084409;28;20012;-76
2021/07/14 05:05:14;;;;;;;13.15;8.43;;;742.80;1664.00;;;;;;5082473;28;20803;-75
2021/07/14 05:07:40;;;;;;;15.15;8.07;;;743.00;1638.40;;;;;;5086835;28;20039;-75
2021/07/14 05:10:07;;;;;;;16.35;9.20;;;743.00;1638.40;;;;;;5085171;28;20028;-75
2021/07/14 05:12:32;;;;;;;16.08;10.70;;;743.10;1638.40;;;;;;5078075;28;20028;-75
2021/07/14 05:14:58;;;;;;;12.23;8.95;;;743.10;1638.40;;;;;;5089502;28;20119;-75
2021/07/14 05:17:24;;;;;;;10.27;8.05;;;743.20;1638.40;;;;;;5081898;28;20090;-75
2021/07/14 05:19:50;;;;;;;17.25;8.52;;;768.00;1638.40;;;;;;5079195;28;20395;-75
2021/07/14 05:22:17;;;;;;;10.50;8.00;;;768.10;1638.40;;;;;;5089124;28;20054;-75
2021/07/14 05:24:43;;;;;;;11.27;9.00;;;768.20;1612.80;;;;;;5089714;28;20112;-75
2021/07/14 05:27:08;;;;;;;13.40;8.73;;;768.40;1612.80;;;;;;5080747;28;20122;-75
2021/07/14 05:29:34;;;;;;;11.18;8.73;;;768.50;1587.20;;;;;;5090836;28;20449;-75
2021/07/14 05:32:01;;;;;;;14.80;9.32;;;768.70;1587.20;;;;;;5084975;28;20028;-75
2021/07/14 05:34:26;;;;;;;14.70;9.88;;;768.70;1587.20;;;;;;5085419;28;20029;-75
2021/07/14 05:36:53;;;;;;;15.70;8.27;;;768.70;1587.20;;;;;;5089872;28;20420;-75
2021/07/14 05:39:18;;;;;;;13.77;8.65;;;793.60;1612.80;;;;;;5092696;28;20028;-75
2021/07/14 05:41:44;;;;;;;20.17;8.45;;;793.80;1587.20;;;;;;5094658;28;20367;-75
2021/07/14 05:44:10;;;;;;;12.27;9.07;;;793.90;1587.20;;;;;;5093938;28;20107;-74
2021/07/14 05:46:36;;;;;;;11.15;8.27;;;793.90;1587.20;;;;;;5094377;28;20471;-74
2021/07/14 05:49:03;;;;;;;14.88;9.93;;;794.10;1561.60;;;;;;5082997;28;20037;-74
2021/07/14 05:51:33;;;;;;;21.42;9.73;;;794.20;1561.60;;;;;;5090860;28;20040;-74
2021/07/14 05:53:59;;;;;;;16.60;8.63;;;794.40;1561.60;;;;;;5092558;28;20382;-74
2021/07/14 05:56:26;;;;;;;15.27;8.82;;;794.40;1561.60;;;;;;5092850;28;20107;-74
2021/07/14 05:58:52;;;;;;;13.00;9.15;;;794.40;1561.60;;;;;;5093775;28;20055;-74
2021/07/14 06:01:18;;;;;;;14.20;9.38;;;819.20;1561.60;;;;;;5092814;28;20390;-74
2021/07/14 06:03:44;;;;;;;13.20;9.05;;;819.30;1536.00;;;;;;5091333;28;20035;-74
2021/07/14 06:06:10;;;;;;;13.60;9.63;;;819.30;1536.00;;;;;;5091874;28;20040;-74
2021/07/14 06:08:35;;;;;;;17.83;9.75;;;819.30;1536.00;;;;;;5093785;28;20059;-73
2021/07/14 06:11:01;;;;;;;13.95;9.23;;;819.50;1536.00;;;;;;5089750;28;20375;-74
2021/07/14 06:13:27;;;;;;;13.43;8.98;;;819.50;1510.40;;;;;;5093735;28;20028;-74
2021/07/14 06:15:52;;;;;;;14.52;9.18;;;819.70;1536.00;;;;;;5093228;28;20119;-74
2021/07/14 06:18:18;;;;;;;19.48;9.68;;;819.70;1510.40;;;;;;5093544;28;20055;-74
2021/07/14 06:20:44;;;;;;;14.40;9.13;;;819.90;1510.40;;;;;;5094072;28;20028;-74
2021/07/14 06:23:10;;;;;;;14.25;9.18;;;820.00;1510.40;;;;;;5095362;28;20077;-74
2021/07/14 06:25:35;;;;;;;13.70;8.05;;;820.00;1510.40;;;;;;5089902;28;20019;-73
2021/07/14 06:28:02;;;;;;;15.60;8.85;;;820.00;1510.40;;;;;;5113772;28;20039;-75
2021/07/14 06:30:28;;;;;;;14.15;9.00;;;820.10;1484.80;;;;;;5094614;28;20027;-76
2021/07/14 06:32:54;;;;;;;11.88;9.20;;;820.10;1484.80;;;;;;5095416;28;20111;-75
2021/07/14 06:35:21;;;;;;;15.18;8.55;;;820.10;1484.80;;;;;;5095322;28;20110;-76
2021/07/14 06:37:51;;;;;;;13.27;8.40;;;844.80;1510.40;;;;;;5113467;28;20101;-75
2021/07/14 06:40:17;;;;;;;18.77;8.43;;;844.80;1510.40;;;;;;5083365;28;20036;-74
2021/07/14 06:42:43;;;;;;;13.70;9.55;;;844.80;1510.40;;;;;;5094928;28;20110;-74
2021/07/14 06:45:11;;;;;;;16.00;8.57;;;845.00;1484.80;;;;;;5113518;28;20020;-74
2021/07/14 06:47:37;;;;;;;13.90;9.18;;;845.10;1484.80;;;;;;5106220;28;20029;-74
2021/07/14 06:50:05;;;;;;;27.17;8.57;;;845.30;1484.80;;;;;;5104817;28;20024;-75
2021/07/14 06:52:31;;;;;;;28.33;10.27;;;845.40;1484.80;;;;;;5106993;28;20036;-76
2021/07/14 06:54:56;;;;;;;20.33;9.95;;;845.30;1459.20;;;;;;5094599;28;20031;-76
2021/07/14 06:57:25;;;;;;;13.90;9.38;;;845.40;1459.20;;;;;;5087748;28;20497;-76
2021/07/14 06:59:51;;;;;;;10.98;8.25;;;845.50;1433.60;;;;;;5112777;28;20018;-76
2021/07/14 07:02:17;;;;;;;12.02;10.25;;;870.40;1433.60;;;;;;5093008;28;20023;-76
2021/07/14 07:04:43;;;;;;;9.70;8.57;;;870.50;1433.60;;;;;;5094517;28;20039;-76
2021/07/14 07:07:09;;;;;;;13.98;8.80;;;870.80;1408.00;;;;;;5086616;28;20425;-76
2021/07/14 07:09:35;;;;;;;25.40;10.15;;;870.60;1408.00;;;;;;5074466;28;20114;-75
2021/07/14 07:12:01;;;;;;;25.80;9.90;;;870.60;1408.00;;;;;;5108083;28;20496;-74
2021/07/14 07:14:26;;;;;;;18.15;9.38;;;870.60;1408.00;;;;;;5089701;28;20020;-76
2021/07/14 07:16:53;;;;;;;17.52;10.20;;;870.90;1408.00;;;;;;5111780;28;20023;-76
2021/07/14 07:19:19;;;;;;;13.02;9.45;;;871.00;1408.00;;;;;;5105327;28;20042;-76
2021/07/14 07:21:48;;;;;;;15.35;9.73;;;871.30;1382.40;;;;;;5092111;28;20501;-75
2021/07/14 07:24:14;;;;;;;15.65;9.43;;;871.30;1382.40;;;;;;5103913;28;20474;-76
2021/07/14 07:26:40;;;;;;;12.20;8.85;;;871.30;1382.40;;;;;;5103866;28;20051;-76
2021/07/14 07:29:06;;;;;;;19.25;9.60;;;871.20;1382.40;;;;;;5094351;28;20528;-76
2021/07/14 07:31:34;;;;;;;23.55;9.80;;;871.30;1356.80;;;;;;5112346;28;20418;-75
2021/07/14 07:34:00;;;;;;;21.48;9.70;;;871.30;1356.80;;;;;;5111721;28;20033;-74
2021/07/14 07:36:27;;;;;;;34.38;10.02;;;896.00;1356.80;;;;;;5112238;28;20091;-75
2021/07/14 07:38:53;;;;;;;19.25;9.23;;;896.00;1356.80;;;;;;5082731;28;20019;-74
2021/07/14 07:41:21;;;;;;;17.33;11.07;;;896.10;1356.80;;;;;;5093935;28;20030;-73
2021/07/14 07:43:47;;;;;;;19.40;10.13;;;896.00;1356.80;;;;;;5093190;28;20040;-74
2021/07/14 07:46:13;;;;;;;18.67;10.07;;;896.10;1356.80;;;;;;5083009;28;20556;-74
2021/07/14 07:48:39;;;;;;;24.50;10.93;;;896.30;1331.20;;;;;;5094111;28;20034;-75
2021/07/14 07:51:06;;;;;;;18.17;9.23;;;896.50;1331.20;;;;;;5093848;28;20719;-75
2021/07/14 07:53:33;;;;;;;17.05;8.30;;;896.60;1331.20;;;;;;5098072;28;20998;-75
2021/07/14 07:55:59;;;;;;;19.48;9.18;;;896.80;1305.60;;;;;;5086876;28;20764;-75
2021/07/14 07:58:25;;;;;;;9.60;8.23;;;896.80;1305.60;;;;;;5099267;28;20027;-74
2021/07/14 08:00:52;;;;;;;11.13;8.65;;;896.90;1305.60;;;;;;5105800;28;20476;-75
2021/07/14 08:03:17;;;;;;;14.40;8.75;;;921.90;1331.20;;;;;;5101696;28;20030;-74
2021/07/14 08:05:43;;;;;;;16.02;9.07;;;922.10;1305.60;;;;;;5079869;28;20020;-74
2021/07/14 08:08:10;;;;;;;13.63;8.73;;;922.00;1280.00;;;;;;5099466;28;20015;-75
2021/07/14 08:10:37;;;;;;;14.73;9.35;;;922.10;1280.00;;;;;;5097996;28;20020;-75
2021/07/14 08:13:04;;;;;;;10.32;8.50;;;922.20;1280.00;;;;;;5105232;28;20102;-74
2021/07/14 08:15:31;;;;;;;13.63;8.32;;;922.30;1280.00;;;;;;5104178;28;20031;-75
2021/07/14 08:17:57;;;;;;;10.57;8.55;;;922.30;1280.00;;;;;;5100769;28;20055;-74
2021/07/14 08:20:23;;;;;;;16.00;9.77;;;922.40;1254.40;;;;;;5081440;28;20031;-75
2021/07/14 08:22:50;;;;;;;10.95;9.32;;;947.20;1254.40;;;;;;5083518;28;20047;-74
2021/07/14 08:25:16;;;;;;;10.15;7.43;;;947.30;1228.80;;;;;;5098107;28;20026;-74
2021/07/14 08:27:43;;;;;;;11.50;8.32;;;947.50;1228.80;;;;;;5084527;28;20034;-74
2021/07/14 08:30:11;;;;;;;13.10;8.80;;;947.70;1203.20;;;;;;5101386;28;20111;-75
2021/07/14 08:32:37;;;;;;;12.65;8.95;;;947.60;1203.20;;;;;;5102625;28;20378;-75
2021/07/14 08:35:04;;;;;;;12.82;9.13;;;947.60;1203.20;;;;;;5077741;28;20039;-75
2021/07/14 08:37:30;;;;;;;15.25;8.73;;;947.70;1203.20;;;;;;5098641;28;20032;-74
2021/07/14 08:39:56;;;;;;;14.50;9.45;;;948.00;1203.20;;;;;;5099519;28;20043;-75
2021/07/14 08:42:24;;;;;;;14.80;8.90;;;947.90;1177.60;;;;;;5098717;28;20475;-75
2021/07/14 08:44:50;;;;;;;10.20;7.57;;;947.90;1203.20;;;;;;5085470;28;20039;-75
2021/07/14 08:47:17;;;;;;;19.63;8.23;;;972.90;1203.20;;;;;;5091457;28;20039;-76
2021/07/14 08:49:45;;;;;;;15.63;8.60;;;972.90;1203.20;;;;;;5105364;28;20028;-74
2021/07/14 08:52:12;;;;;;;17.55;7.75;;;973.30;1177.60;;;;;;5086938;28;20039;-75
2021/07/14 08:54:41;;;;;;;11.48;8.70;;;973.30;1177.60;;;;;;5105685;28;20020;-75
2021/07/14 08:57:08;;;;;;;20.38;8.25;;;973.50;1177.60;;;;;;5100739;28;20027;-75
2021/07/14 08:59:34;;;;;;;20.25;9.20;;;973.60;1177.60;;;;;;5086603;28;20016;-76
2021/07/14 09:02:00;;;;;;;17.25;9.57;;;973.60;1152.00;;;;;;5101944;28;20024;-76
2021/07/14 09:04:26;;;;;;;17.73;9.07;;;998.60;1177.60;;;;;;5091195;28;20024;-75
2021/07/14 09:06:52;;;;;;;16.48;8.35;;;998.70;1177.60;;;;;;5107572;28;20552;-74
2021/07/14 09:09:18;;;;;;;14.43;8.57;;;998.60;1177.60;;;;;;5101627;28;20091;-75
2021/07/14 09:11:58;;;;;;;12.75;8.45;;;998.60;1177.60;;;;;;5110556;28;20032;-75
2021/07/14 09:14:27;;;;;;;20.35;8.88;;;999.20;1152.00;;;;;;5100553;28;20066;-76
2021/07/14 09:16:53;;;;;;;14.80;8.65;;;999.30;1126.40;;;;;;5104747;28;20034;-75
2021/07/14 09:19:27;;;;;;;12.80;8.13;;;999.30;1152.00;;;;;;5110339;28;20099;-75
2021/07/14 09:21:54;;;;;;;12.88;8.68;;;1024.00;1126.40;;;;;;5105673;28;20047;-75
2021/07/14 09:24:26;;;;;;;10.38;8.57;;;1024.40;1100.80;;;;;;5104408;28;20028;-75
2021/07/14 09:26:53;;;;;;;15.10;9.30;;;1024.70;1075.20;;;;;;5092922;28;20289;-73
2021/07/14 09:29:19;;;;;;;14.45;8.50;;;1024.50;1075.20;;;;;;5108215;28;20103;-74
2021/07/14 09:31:46;;;;;;;8.25;7.10;;;1024.70;1075.20;;;;;;5109174;28;20504;-73
2021/07/14 09:34:32;;;;;;;13.73;10.05;;;1024.50;1075.20;;;;;;5102797;28;20024;-73
2021/07/14 09:37:02;;;;;;;20.77;10.10;;;1024.00;1126.40;;;;;;5092022;28;20542;-74
2021/07/14 09:39:34;;;;;;;11.77;9.10;;;999.20;1126.40;;;;;;5076486;28;20020;-74
2021/07/14 09:42:11;;;;;;;10.90;8.65;;;999.10;1126.40;;;;;;5096913;28;20397;-74
2021/07/14 09:45:04;;;;;;;13.85;9.15;;;1024.00;1126.40;;;;;;5098781;28;20470;-73
2021/07/14 09:47:29;;;;;;;12.35;8.57;;;1024.40;1100.80;;;;;;5105788;28;20119;-72
2021/07/14 09:49:55;;;;;;;10.20;9.10;;;1024.60;1100.80;;;;;;5108375;28;20059;-73
2021/07/14 09:52:22;;;;;;;13.60;9.60;;;1049.60;1126.40;;;;;;5094192;28;20490;-75
2021/07/14 09:54:48;;;;;;;15.45;9.13;;;1049.80;1100.80;;;;;;5087163;28;20020;-74
2021/07/14 09:57:18;;;;;;;12.00;9.20;;;1049.60;1100.80;;;;;;5100326;28;20020;-74
2021/07/14 09:59:45;;;;;;;11.60;7.72;;;1024.80;1075.20;;;;;;5085367;28;20020;-73
2021/07/14 10:02:16;;;;;;;9.68;8.77;;;1024.60;1075.20;;;;;;5087102;28;20020;-74
2021/07/14 10:04:44;;;;;;;17.00;8.18;;;1024.30;1100.80;;;;;;5101262;28;20027;-74
2021/07/14 10:07:11;;;;;;;10.05;9.05;;;1024.20;1100.80;;;;;;5081543;28;20128;-77
2021/07/14 10:09:38;;;;;;;11.85;10.55;;;1024.40;1100.80;;;;;;5084730;28;20023;-77
2021/07/14 10:12:24;;;;;;;10.20;7.65;;;1049.60;1100.80;;;;;;5082599;28;20394;-77
2021/07/14 10:14:50;;;;;;;13.20;8.68;;;1050.40;1075.20;;;;;;5082746;28;20016;-78
2021/07/14 10:17:36;;;;;;;10.73;8.55;;;1075.20;1049.60;;;;;;5091704;28;20019;-77
2021/07/14 10:20:21;;;;;;;11.52;8.63;;;1075.50;1024.00;;;;;;5093476;28;20072;-77
2021/07/14 10:22:56;;;;;;;12.52;8.32;;;1075.60;1024.00;;;;;;5094717;28;20044;-75
2021/07/14 10:25:22;;;;;;;12.35;8.38;;;1075.50;1024.00;;;;;;5092931;28;20023;-74
2021/07/14 10:27:52;;;;;;;11.93;8.32;;;1075.90;998.40;;;;;;5109395;28;20036;-75
2021/07/14 10:30:20;;;;;;;15.93;9.60;;;1100.90;1024.00;;;;;;5105306;28;20412;-75
2021/07/14 10:32:46;;;;;;;11.43;8.70;;;1101.00;998.40;;;;;;5109180;28;20031;-76
2021/07/14 10:35:15;;;;;;;12.25;9.15;;;1101.10;998.40;;;;;;5108743;28;20059;-76
2021/07/14 10:37:54;;;;;;;11.23;8.07;;;1101.40;972.80;;;;;;5097267;28;20073;-76
2021/07/14 10:40:22;;;;;;;8.48;7.50;;;1101.40;972.80;;;;;;5106344;28;20428;-77
2021/07/14 10:42:49;;;;;;;10.98;8.55;;;1101.00;972.80;;;;;;5082826;28;20089;-76
2021/07/14 10:45:15;;;;;;;13.05;8.02;;;1101.10;998.40;;;;;;5108230;28;20028;-76
2021/07/14 10:47:41;;;;;;;12.57;8.55;;;1101.30;998.40;;;;;;5083018;28;20597;-76
2021/07/14 10:50:09;;;;;;;12.77;9.55;;;1101.40;998.40;;;;;;5086441;28;20039;-76
2021/07/14 10:52:37;;;;;;;9.43;8.40;;;1101.70;998.40;;;;;;5107728;28;20059;-76
2021/07/14 10:55:04;;;;;;;15.32;9.95;;;1126.60;1024.00;;;;;;5083059;28;20402;-77
2021/07/14 10:57:35;;;;;;;9.68;8.32;;;1126.60;1024.00;;;;;;5086834;28;20040;-78
2021/07/14 11:00:01;;;;;;;10.93;8.38;;;1126.70;1024.00;;;;;;5090176;28;20028;-78
2021/07/14 11:02:46;;;;;;;9.95;8.38;;;1126.90;998.40;;;;;;5090864;28;20378;-78
2021/07/14 11:05:14;;;;;;;9.80;7.88;;;1126.90;972.80;;;;;;5089152;28;20027;-78
2021/07/14 11:07:45;;;;;;;15.18;9.27;;;1126.60;998.40;;;;;;5103073;28;20042;-78
2021/07/14 11:10:38;;;;;;;10.77;9.05;;;1126.90;998.40;;;;;;5087219;28;20148;-78
2021/07/14 11:13:27;;;;;;;10.57;9.23;;;1127.20;998.40;;;;;;5102881;28;20036;-78
2021/07/14 11:15:53;;;;;;;11.05;9.20;;;1152.00;972.80;;;;;;5086815;28;20027;-78
2021/07/14 11:18:31;;;;;;;16.55;8.43;;;1152.10;947.20;;;;;;5085279;28;20351;-78
2021/07/14 11:21:00;;;;;;;10.75;8.18;;;1152.30;972.80;;;;;;5106108;28;20561;-78
2021/07/14 11:23:29;;;;;;;10.00;8.10;;;1152.70;921.60;;;;;;5082069;28;20562;-77
2021/07/14 11:25:57;;;;;;;9.13;7.78;;;1152.60;947.20;;;;;;5105288;28;20513;-78
2021/07/14 11:28:24;;;;;;;11.88;8.93;;;1152.10;947.20;;;;;;5103026;28;20479;-78
2021/07/14 11:30:55;;;;;;;10.88;8.60;;;1152.20;947.20;;;;;;5082580;28;20058;-79
2021/07/14 11:33:27;;;;;;;12.75;9.00;;;1152.30;947.20;;;;;;5100460;28;20026;-79
2021/07/14 11:35:57;;;;;;;18.27;13.82;;;1152.10;947.20;;;;;;5102087;28;20020;-79
2021/07/14 11:38:42;;;;;;;11.80;9.68;;;1126.90;972.80;;;;;;5097754;28;20016;-79
2021/07/14 11:41:19;;;;;;;15.85;12.23;;;1127.10;947.20;;;;;;5108007;28;20371;-78
2021/07/14 11:43:45;;;;;;;12.95;9.80;;;1152.00;947.20;;;;;;5083578;28;20019;-79
2021/07/14 11:46:14;;;;;;;11.70;8.93;;;1152.20;947.20;;;;;;5089352;28;20016;-79
2021/07/14 11:48:50;;;;;;;11.43;8.05;;;1152.20;921.60;;;;;;5082403;28;20543;-79
2021/07/14 11:51:15;;;;;;;12.98;9.50;;;1152.80;870.40;;;;;;5082336;28;20032;-78
2021/07/14 11:53:49;;;;;;;9.55;7.38;;;1177.70;896.00;;;;;;5098752;28;20028;-78
2021/07/14 11:56:35;;;;;;;12.35;8.85;;;1152.80;896.00;;;;;;5083015;28;20470;-78
2021/07/14 11:59:05;;;;;;;13.93;8.18;;;1177.60;896.00;;;;;;5088519;28;20048;-77
2021/07/14 12:01:31;;;;;;;14.90;9.25;;;1177.80;870.40;;;;;;5083908;28;20034;-77
2021/07/14 12:04:04;;;;;;;10.18;8.20;;;1152.50;896.00;;;;;;5107328;28;20023;-82
2021/07/14 12:06:43;;;;;;;10.55;6.80;;;1152.70;896.00;;;;;;5112039;28;20027;-81
2021/07/14 12:09:12;;;;;;;8.88;7.80;;;1152.60;896.00;;;;;;5086205;28;20429;-75
2021/07/14 12:11:49;;;;;;;10.15;7.90;;;1126.90;947.20;;;;;;5106874;28;20020;-77
2021/07/14 12:14:19;;;;;;;11.68;7.45;;;1101.50;947.20;;;;;;5099002;28;20016;-78
2021/07/14 12:16:53;;;;;;;11.82;8.20;;;1076.00;947.20;;;;;;5093952;28;20043;-78
2021/07/14 12:19:31;;;;;;;12.13;9.07;;;1075.60;972.80;;;;;;5084992;28;20501;-78
2021/07/14 12:22:03;;;;;;;12.90;9.30;;;1075.40;972.80;;;;;;5099538;28;20294;-79
2021/07/14 12:24:36;;;;;;;13.93;10.15;;;1050.40;972.80;;;;;;5111820;28;20051;-79
2021/07/14 12:27:07;;;;;;;19.42;8.88;;;1050.30;998.40;;;;;;5111936;28;20027;-77